createdAt,value
2019-05-18T00:00:55.898Z,16.50
2019-05-18T00:03:24.977Z,16.50
2019-05-18T00:05:54.066Z,16.40
2019-05-18T00:08:23.130Z,16.30
2019-05-18T00:10:52.234Z,16.20
2019-05-18T00:13:21.726Z,16.20
2019-05-18T00:15:51.029Z,16.20
2019-05-18T00:18:20.143Z,16.20
2019-05-18T00:20:49.466Z,16.20
2019-05-18T00:23:19.138Z,16.20
2019-05-18T00:25:48.222Z,16.20
2019-05-18T00:28:17.327Z,16.20
2019-05-18T00:30:46.463Z,16.20
2019-05-18T00:33:15.718Z,16.20
2019-05-18T00:35:44.830Z,16.10
2019-05-18T00:38:13.907Z,16.10
2019-05-18T00:40:43.378Z,16.10
2019-05-18T00:43:12.488Z,16.00
2019-05-18T00:45:41.590Z,16.00
2019-05-18T00:48:10.707Z,16.00
2019-05-18T00:50:40.374Z,15.90
2019-05-18T00:53:09.482Z,15.90
2019-05-18T00:55:38.630Z,15.90
2019-05-18T00:58:07.949Z,15.90
2019-05-18T01:00:37.138Z,15.90
2019-05-18T01:03:06.542Z,15.80
2019-05-18T01:05:37.980Z,15.80
2019-05-18T01:08:08.102Z,15.70
2019-05-18T01:10:37.442Z,15.70
2019-05-18T01:13:06.843Z,15.70
2019-05-18T01:15:35.959Z,15.70
2019-05-18T01:18:05.066Z,15.60
2019-05-18T01:20:34.179Z,15.50
2019-05-18T01:23:03.627Z,15.50
2019-05-18T01:25:36.427Z,15.50
2019-05-18T01:28:05.866Z,15.50
2019-05-18T01:30:35.030Z,15.50
2019-05-18T01:33:04.553Z,15.40
2019-05-18T01:35:33.638Z,15.40
2019-05-18T01:38:03.063Z,15.40
2019-05-18T01:40:32.220Z,15.40
2019-05-18T01:43:01.920Z,15.50
2019-05-18T01:45:31.069Z,15.40
2019-05-18T01:48:14.230Z,15.40
2019-05-18T01:50:38.914Z,15.30
2019-05-18T01:53:08.314Z,15.30
2019-05-18T01:55:37.439Z,15.30
2019-05-18T01:58:06.576Z,15.30
2019-05-18T02:00:35.655Z,15.30
2019-05-18T02:03:05.443Z,15.30
2019-05-18T02:05:34.566Z,15.20
2019-05-18T02:08:03.970Z,15.20
2019-05-18T02:10:33.024Z,15.20
2019-05-18T02:13:02.758Z,15.20
2019-05-18T02:15:32.013Z,15.10
2019-05-18T02:18:01.130Z,15.10
2019-05-18T02:20:30.470Z,15.20
2019-05-18T02:22:59.808Z,15.10
2019-05-18T02:25:28.909Z,15.10
2019-05-18T02:27:58.014Z,15.10
2019-05-18T02:30:27.148Z,15.20
2019-05-18T02:32:56.253Z,15.20
2019-05-18T02:35:25.318Z,15.20
2019-05-18T02:37:56.091Z,15.10
2019-05-18T02:40:25.193Z,15.20
2019-05-18T02:42:54.486Z,15.20
2019-05-18T02:45:23.866Z,15.10
2019-05-18T02:47:53.221Z,15.00
2019-05-18T02:50:22.279Z,15.00
2019-05-18T02:52:51.623Z,15.00
2019-05-18T02:55:20.743Z,14.90
2019-05-18T02:57:49.833Z,14.90
2019-05-18T03:00:19.025Z,15.00
2019-05-18T03:02:48.160Z,15.00
2019-05-18T03:05:17.243Z,15.00
2019-05-18T03:07:46.330Z,15.00
2019-05-18T03:10:15.620Z,15.10
2019-05-18T03:12:44.794Z,15.10
2019-05-18T03:15:14.155Z,15.10
2019-05-18T03:17:43.635Z,15.10
2019-05-18T03:20:13.259Z,15.10
2019-05-18T03:22:42.345Z,15.10
2019-05-18T03:25:11.432Z,15.10
2019-05-18T03:27:40.526Z,15.00
2019-05-18T03:30:10.258Z,15.00
2019-05-18T03:32:39.315Z,15.00
2019-05-18T03:35:08.531Z,15.00
2019-05-18T03:37:38.213Z,15.00
2019-05-18T03:40:07.647Z,14.90
2019-05-18T03:42:36.744Z,14.80
2019-05-18T03:45:06.694Z,14.90
2019-05-18T03:47:36.024Z,14.90
2019-05-18T03:50:05.412Z,15.00
2019-05-18T03:52:34.481Z,15.00
2019-05-18T03:55:03.820Z,14.90
2019-05-18T03:57:32.886Z,15.00
2019-05-18T04:00:02.086Z,15.00
2019-05-18T04:02:31.670Z,15.00
2019-05-18T04:05:00.772Z,15.00
2019-05-18T04:07:29.939Z,15.00
2019-05-18T04:09:59.569Z,15.10
2019-05-18T04:12:28.742Z,15.10
2019-05-18T04:14:57.843Z,15.10
2019-05-18T04:17:27.018Z,15.10
2019-05-18T04:19:56.154Z,15.20
2019-05-18T04:22:25.232Z,15.10
2019-05-18T04:24:54.625Z,15.10
2019-05-18T04:27:23.783Z,15.10
2019-05-18T04:29:52.870Z,15.10
2019-05-18T04:32:21.928Z,15.10
2019-05-18T04:34:51.019Z,15.20
2019-05-18T04:37:20.109Z,15.20
2019-05-18T04:39:49.683Z,15.20
2019-05-18T04:42:18.783Z,15.20
2019-05-18T04:44:47.867Z,15.30
2019-05-18T04:47:16.970Z,15.30
2019-05-18T04:50:03.545Z,15.20
2019-05-18T04:52:16.939Z,15.20
2019-05-18T04:54:46.078Z,15.20
2019-05-18T04:57:15.243Z,15.20
2019-05-18T04:59:44.365Z,15.20
2019-05-18T05:02:13.922Z,15.10
2019-05-18T05:04:43.039Z,15.10
2019-05-18T05:07:12.128Z,15.10
2019-05-18T05:09:41.288Z,15.20
2019-05-18T05:12:10.439Z,15.20
2019-05-18T05:14:39.509Z,15.20
2019-05-18T05:17:08.959Z,15.20
2019-05-18T05:19:38.084Z,15.20
2019-05-18T05:22:07.441Z,15.30
2019-05-18T05:24:37.372Z,15.30
2019-05-18T05:27:07.136Z,15.40
2019-05-18T05:29:36.219Z,15.40
2019-05-18T05:32:05.330Z,15.40
2019-05-18T05:34:34.497Z,15.50
2019-05-18T05:37:03.836Z,15.50
2019-05-18T05:39:32.934Z,15.50
2019-05-18T05:42:03.404Z,15.60
2019-05-18T05:44:32.497Z,15.60
2019-05-18T05:47:02.081Z,15.60
2019-05-18T05:49:31.306Z,15.70
2019-05-18T05:52:00.367Z,15.70
2019-05-18T05:54:29.442Z,15.80
2019-05-18T05:56:58.542Z,15.80
2019-05-18T05:59:27.657Z,15.80
2019-05-18T06:01:56.731Z,15.80
2019-05-18T06:04:25.840Z,15.90
2019-05-18T06:06:54.929Z,15.90
2019-05-18T06:09:24.062Z,15.90
2019-05-18T06:11:53.136Z,15.90
2019-05-18T06:14:22.222Z,15.90
2019-05-18T06:16:51.354Z,15.90
2019-05-18T06:19:20.534Z,16.00
2019-05-18T06:21:49.742Z,16.00
2019-05-18T06:24:19.640Z,16.00
2019-05-18T06:26:48.748Z,16.10
2019-05-18T06:29:17.818Z,16.00
2019-05-18T06:31:46.956Z,16.10
2019-05-18T06:34:16.141Z,16.10
2019-05-18T06:36:45.244Z,16.10
2019-05-18T06:39:14.614Z,16.20
2019-05-18T06:41:43.707Z,16.20
2019-05-18T06:44:12.877Z,16.20
2019-05-18T06:46:42.025Z,16.30
2019-05-18T06:49:11.770Z,16.20
2019-05-18T06:51:41.106Z,16.20
2019-05-18T06:54:10.215Z,16.30
2019-05-18T06:56:40.739Z,16.40
2019-05-18T06:59:10.266Z,16.40
2019-05-18T07:01:39.624Z,16.40
2019-05-18T07:04:08.980Z,16.50
2019-05-18T07:06:40.724Z,16.50
2019-05-18T07:09:14.525Z,16.50
2019-05-18T07:11:43.983Z,16.50
2019-05-18T07:14:24.843Z,16.60
2019-05-18T07:16:43.924Z,16.60
2019-05-18T07:19:13.033Z,16.60
2019-05-18T07:21:42.124Z,16.60
2019-05-18T07:24:11.322Z,16.70
2019-05-18T07:26:40.423Z,16.60
2019-05-18T07:29:09.738Z,16.60
2019-05-18T07:31:42.126Z,16.70
2019-05-18T07:34:11.200Z,16.70
2019-05-18T07:36:40.294Z,16.70
2019-05-18T07:39:09.379Z,16.80
2019-05-18T07:41:46.242Z,16.80
2019-05-18T07:44:09.675Z,16.80
2019-05-18T07:46:38.767Z,16.80
2019-05-18T07:49:07.873Z,16.90
2019-05-18T07:51:37.536Z,16.90
2019-05-18T07:54:07.039Z,17.00
2019-05-18T07:56:36.194Z,17.00
2019-05-18T07:59:05.322Z,17.00
2019-05-18T08:01:34.486Z,17.10
2019-05-18T08:04:03.600Z,17.10
2019-05-18T08:06:33.349Z,17.20
2019-05-18T08:09:02.505Z,17.20
2019-05-18T08:11:31.614Z,17.20
2019-05-18T08:14:00.733Z,17.30
2019-05-18T08:16:29.943Z,17.30
2019-05-18T08:18:59.011Z,17.30
2019-05-18T08:21:28.094Z,17.40
2019-05-18T08:23:57.386Z,17.30
2019-05-18T08:26:26.487Z,17.40
2019-05-18T08:28:55.556Z,17.40
2019-05-18T08:31:24.723Z,17.50
2019-05-18T08:33:53.896Z,17.50
2019-05-18T08:36:23.309Z,17.60
2019-05-18T08:38:52.412Z,17.60
2019-05-18T08:41:21.494Z,17.70
2019-05-18T08:43:50.896Z,17.70
2019-05-18T08:46:20.022Z,17.70
2019-05-18T08:48:49.084Z,17.70
2019-05-18T08:51:18.192Z,17.80
2019-05-18T08:53:47.310Z,17.80
2019-05-18T08:56:16.413Z,17.90
2019-05-18T08:58:46.067Z,17.90
2019-05-18T09:01:15.201Z,17.90
2019-05-18T09:03:44.482Z,18.00
2019-05-18T09:06:13.720Z,18.00
2019-05-18T09:08:42.801Z,18.00
2019-05-18T09:11:12.294Z,18.10
2019-05-18T09:13:41.408Z,18.10
2019-05-18T09:16:10.510Z,18.20
2019-05-18T09:18:39.737Z,18.20
2019-05-18T09:21:09.266Z,18.30
2019-05-18T09:23:38.343Z,18.30
2019-05-18T09:26:07.435Z,18.30
2019-05-18T09:28:36.619Z,18.40
2019-05-18T09:31:05.712Z,18.40
2019-05-18T09:33:35.151Z,18.40
2019-05-18T09:36:04.975Z,18.50
2019-05-18T09:38:34.092Z,18.60
2019-05-18T09:41:03.498Z,18.60
2019-05-18T09:43:32.874Z,18.70
2019-05-18T09:46:01.956Z,18.70
2019-05-18T09:48:31.143Z,18.70
2019-05-18T09:51:00.679Z,18.70
2019-05-18T09:53:30.300Z,18.80
2019-05-18T09:55:59.371Z,18.90
2019-05-18T09:58:28.457Z,18.90
2019-05-18T10:00:57.553Z,18.90
2019-05-18T10:03:26.936Z,19.00
2019-05-18T10:05:56.460Z,19.00
2019-05-18T10:08:25.537Z,19.10
2019-05-18T10:10:54.723Z,19.10
2019-05-18T10:13:23.830Z,19.10
2019-05-18T10:15:52.971Z,19.20
2019-05-18T10:18:22.085Z,19.20
2019-05-18T10:20:51.433Z,19.20
2019-05-18T10:23:20.816Z,19.30
2019-05-18T10:25:49.966Z,19.30
2019-05-18T10:28:19.374Z,19.40
2019-05-18T10:30:48.442Z,19.40
2019-05-18T10:33:17.738Z,19.40
2019-05-18T10:35:46.950Z,19.50
2019-05-18T10:38:16.038Z,19.50
2019-05-18T10:40:45.408Z,19.60
2019-05-18T10:43:14.874Z,19.60
2019-05-18T10:45:45.207Z,19.60
2019-05-18T10:48:16.163Z,19.70
2019-05-18T10:50:47.015Z,19.70
2019-05-18T10:53:28.319Z,19.70
2019-05-18T10:55:47.182Z,19.70
2019-05-18T10:58:16.868Z,19.70
2019-05-18T11:00:46.066Z,19.80
2019-05-18T11:03:15.346Z,19.80
2019-05-18T11:05:44.480Z,19.80
2019-05-18T11:08:14.556Z,19.80
2019-05-18T11:10:43.638Z,19.90
2019-05-18T11:13:12.798Z,19.90
2019-05-18T11:15:42.020Z,20.00
2019-05-18T11:18:11.151Z,20.00
2019-05-18T11:20:41.036Z,20.10
2019-05-18T11:23:10.523Z,20.10
2019-05-18T11:25:40.071Z,20.20
2019-05-18T11:28:09.195Z,20.20
2019-05-18T11:30:38.653Z,20.20
2019-05-18T11:33:08.132Z,20.30
2019-05-18T11:35:37.235Z,20.40
2019-05-18T11:38:06.315Z,20.60
2019-05-18T11:40:35.426Z,20.70
2019-05-18T11:43:04.983Z,20.80
2019-05-18T11:45:34.060Z,20.80
2019-05-18T11:48:03.187Z,20.80
2019-05-18T11:50:32.340Z,20.80
2019-05-18T11:53:01.832Z,20.80
2019-05-18T11:55:31.182Z,20.80
2019-05-18T11:58:00.303Z,20.80
2019-05-18T12:00:29.496Z,20.80
2019-05-18T12:02:58.885Z,20.90
2019-05-18T12:05:28.136Z,21.00
2019-05-18T12:07:57.238Z,21.00
2019-05-18T12:10:26.375Z,21.10
2019-05-18T12:12:55.741Z,21.20
2019-05-18T12:15:24.900Z,21.20
2019-05-18T12:17:54.444Z,21.30
2019-05-18T12:20:24.201Z,21.30
2019-05-18T12:22:54.076Z,21.30
2019-05-18T12:25:23.139Z,21.30
2019-05-18T12:27:52.271Z,21.40
2019-05-18T12:30:21.439Z,21.40
2019-05-18T12:32:50.518Z,21.50
2019-05-18T12:35:19.579Z,21.60
2019-05-18T12:37:48.959Z,21.60
2019-05-18T12:40:21.314Z,21.70
2019-05-18T12:42:50.438Z,21.70
2019-05-18T12:45:19.891Z,21.80
2019-05-18T12:47:49.497Z,21.90
2019-05-18T12:50:19.735Z,21.90
2019-05-18T12:52:48.809Z,21.90
2019-05-18T12:55:18.405Z,21.80
2019-05-18T12:57:47.526Z,21.90
2019-05-18T13:00:17.886Z,21.90
2019-05-18T13:02:47.067Z,21.90
2019-05-18T13:05:16.300Z,21.90
2019-05-18T13:07:45.405Z,21.90
2019-05-18T13:10:16.075Z,21.90
2019-05-18T13:12:45.243Z,21.90
2019-05-18T13:15:15.670Z,21.90
2019-05-18T13:17:45.037Z,21.90
2019-05-18T13:20:14.986Z,22.00
2019-05-18T13:22:44.173Z,22.00
2019-05-18T13:25:15.133Z,22.00
2019-05-18T13:27:44.391Z,22.10
2019-05-18T13:30:19.743Z,22.10
2019-05-18T13:32:46.888Z,22.20
2019-05-18T13:35:16.198Z,22.20
2019-05-18T13:37:50.047Z,22.10
2019-05-18T13:40:20.324Z,22.10
2019-05-18T13:42:49.496Z,22.10
2019-05-18T13:45:18.782Z,22.10
2019-05-18T13:47:47.926Z,22.20
2019-05-18T13:50:16.990Z,22.20
2019-05-18T13:52:50.813Z,22.30
2019-05-18T13:55:20.098Z,22.40
2019-05-18T13:57:49.193Z,22.50
2019-05-18T14:00:19.127Z,22.60
2019-05-18T14:02:48.302Z,22.70
2019-05-18T14:05:17.862Z,22.70
2019-05-18T14:07:47.287Z,22.70
2019-05-18T14:10:17.333Z,22.80
2019-05-18T14:12:46.564Z,22.80
2019-05-18T14:15:15.627Z,22.90
2019-05-18T14:17:45.075Z,22.90
2019-05-18T14:20:14.878Z,22.90
2019-05-18T14:22:44.654Z,22.90
2019-05-18T14:25:19.335Z,23.00
2019-05-18T14:27:44.623Z,22.90
2019-05-18T14:30:13.970Z,22.90
2019-05-18T14:32:43.485Z,22.90
2019-05-18T14:35:12.863Z,22.90
2019-05-18T14:37:41.935Z,23.00
2019-05-18T14:40:11.723Z,23.10
2019-05-18T14:42:40.873Z,23.20
2019-05-18T14:45:10.972Z,23.20
2019-05-18T14:47:40.123Z,23.30
2019-05-18T14:50:09.867Z,23.40
2019-05-18T14:52:38.948Z,23.40
2019-05-18T14:55:09.801Z,23.40
2019-05-18T14:57:38.904Z,23.40
2019-05-18T15:00:10.285Z,23.30
2019-05-18T15:02:39.507Z,23.20
2019-05-18T15:05:08.691Z,23.10
2019-05-18T15:07:37.764Z,23.10
2019-05-18T15:10:07.911Z,23.10
2019-05-18T15:12:37.291Z,23.10
2019-05-18T15:15:07.296Z,23.10
2019-05-18T15:17:37.130Z,23.10
2019-05-18T15:20:06.603Z,23.20
2019-05-18T15:22:35.962Z,23.30
2019-05-18T15:25:05.146Z,23.40
2019-05-18T15:27:34.243Z,23.50
2019-05-18T15:30:03.377Z,23.50
2019-05-18T15:32:32.501Z,23.60
2019-05-18T15:35:01.879Z,23.60
2019-05-18T15:37:31.255Z,23.60
2019-05-18T15:40:00.944Z,23.60
2019-05-18T15:42:30.315Z,23.60
2019-05-18T15:44:59.713Z,23.60
2019-05-18T15:47:29.126Z,23.60
2019-05-18T15:49:58.547Z,23.60
2019-05-18T15:52:27.619Z,23.50
2019-05-18T15:55:00.451Z,23.60
2019-05-18T15:57:29.553Z,23.60
2019-05-18T15:59:58.734Z,23.70
2019-05-18T16:02:27.899Z,23.70
2019-05-18T16:04:57.250Z,23.70
2019-05-18T16:07:26.353Z,23.70
2019-05-18T16:09:55.860Z,23.70
2019-05-18T16:12:25.022Z,23.70
2019-05-18T16:14:54.379Z,23.70
2019-05-18T16:17:38.090Z,23.70
2019-05-18T16:19:55.051Z,23.80
2019-05-18T16:22:26.002Z,23.90
2019-05-18T16:24:55.387Z,24.00
2019-05-18T16:27:24.681Z,24.10
2019-05-18T16:29:53.842Z,24.10
2019-05-18T16:32:23.283Z,24.10
2019-05-18T16:34:52.414Z,24.20
2019-05-18T16:37:21.747Z,24.20
2019-05-18T16:39:50.814Z,24.20
2019-05-18T16:42:20.054Z,24.20
2019-05-18T16:44:49.403Z,24.20
2019-05-18T16:47:18.546Z,24.30
2019-05-18T16:49:48.105Z,24.40
2019-05-18T16:52:17.312Z,24.40
2019-05-18T16:54:46.438Z,24.50
2019-05-18T16:57:15.594Z,24.50
2019-05-18T16:59:45.066Z,24.50
2019-05-18T17:02:30.314Z,24.50
2019-05-18T17:04:45.213Z,24.50
2019-05-18T17:07:14.272Z,24.50
2019-05-18T17:09:43.357Z,24.50
2019-05-18T17:12:13.093Z,24.60
2019-05-18T17:14:42.541Z,25.00
2019-05-18T17:17:11.892Z,25.10
2019-05-18T17:19:41.962Z,25.20
2019-05-18T17:22:11.317Z,25.10
2019-05-18T17:24:40.664Z,24.90
2019-05-18T17:27:10.148Z,24.70
2019-05-18T17:29:39.214Z,24.60
2019-05-18T17:32:08.395Z,24.60
2019-05-18T17:34:37.513Z,24.60
2019-05-18T17:37:06.934Z,24.50
2019-05-18T17:39:36.021Z,24.40
2019-05-18T17:42:05.519Z,24.30
2019-05-18T17:44:34.783Z,24.20
2019-05-18T17:47:03.867Z,24.20
2019-05-18T17:49:32.941Z,24.10
2019-05-18T17:52:02.565Z,24.10
2019-05-18T17:54:31.647Z,24.00
2019-05-18T17:57:08.632Z,24.00
2019-05-18T17:59:31.644Z,23.90
2019-05-18T18:02:00.771Z,23.80
2019-05-18T18:04:30.367Z,23.80
2019-05-18T18:06:59.415Z,23.80
2019-05-18T18:09:28.522Z,23.70
2019-05-18T18:11:57.655Z,23.60
2019-05-18T18:14:26.735Z,23.60
2019-05-18T18:16:56.093Z,23.50
2019-05-18T18:19:25.467Z,23.50
2019-05-18T18:21:54.577Z,23.50
2019-05-18T18:24:23.678Z,23.40
2019-05-18T18:26:52.788Z,23.40
2019-05-18T18:29:22.507Z,23.30
2019-05-18T18:31:51.873Z,23.30
2019-05-18T18:34:20.967Z,23.20
2019-05-18T18:36:50.102Z,23.20
2019-05-18T18:39:19.266Z,23.20
2019-05-18T18:41:48.508Z,23.10
2019-05-18T18:44:18.068Z,23.10
2019-05-18T18:46:47.149Z,23.00
2019-05-18T18:49:16.242Z,22.90
2019-05-18T18:51:45.387Z,22.90
2019-05-18T18:54:14.471Z,22.90
2019-05-18T18:56:43.547Z,22.80
2019-05-18T18:59:12.638Z,22.80
2019-05-18T19:01:41.710Z,22.70
2019-05-18T19:04:11.101Z,22.70
2019-05-18T19:06:40.520Z,22.70
2019-05-18T19:09:09.659Z,22.60
2019-05-18T19:11:38.782Z,22.50
2019-05-18T19:14:07.881Z,22.40
2019-05-18T19:16:37.012Z,22.40
2019-05-18T19:19:06.432Z,22.40
2019-05-18T19:21:35.634Z,22.30
2019-05-18T19:24:05.754Z,22.30
2019-05-18T19:26:34.914Z,22.20
2019-05-18T19:29:04.484Z,22.20
2019-05-18T19:31:33.593Z,22.10
2019-05-18T19:34:02.673Z,22.00
2019-05-18T19:36:31.758Z,21.90
2019-05-18T19:39:00.863Z,21.90
2019-05-18T19:41:29.914Z,21.80
2019-05-18T19:44:03.915Z,21.80
2019-05-18T19:46:32.968Z,21.70
2019-05-18T19:49:02.054Z,21.70
2019-05-18T19:51:31.415Z,21.70
2019-05-18T19:54:00.535Z,21.60
2019-05-18T19:56:36.911Z,21.60
2019-05-18T19:59:04.637Z,21.50
2019-05-18T20:01:33.989Z,21.50
2019-05-18T20:04:03.112Z,21.40
2019-05-18T20:06:32.489Z,21.30
2019-05-18T20:09:01.638Z,21.30
2019-05-18T20:11:30.718Z,21.30
2019-05-18T20:13:59.834Z,21.20
2019-05-18T20:16:28.969Z,21.20
2019-05-18T20:18:58.081Z,21.20
2019-05-18T20:21:27.466Z,21.20
2019-05-18T20:23:56.786Z,21.20
2019-05-18T20:26:25.905Z,21.10
2019-05-18T20:28:56.648Z,21.10
2019-05-18T20:31:25.968Z,21.10
2019-05-18T20:33:55.068Z,21.10
2019-05-18T20:36:24.170Z,21.00
2019-05-18T20:38:53.507Z,21.00
2019-05-18T20:41:22.634Z,20.90
2019-05-18T20:43:51.745Z,20.90
2019-05-18T20:46:20.844Z,20.90
2019-05-18T20:48:49.927Z,20.80
2019-05-18T20:51:19.041Z,20.70
2019-05-18T20:53:48.606Z,20.60
2019-05-18T20:56:17.728Z,20.50
2019-05-18T20:58:46.826Z,20.60
2019-05-18T21:01:15.899Z,20.50
2019-05-18T21:03:45.026Z,20.50
2019-05-18T21:06:14.111Z,20.40
2019-05-18T21:08:43.195Z,20.30
2019-05-18T21:11:12.258Z,20.30
2019-05-18T21:13:41.391Z,20.30
2019-05-18T21:16:10.475Z,20.30
2019-05-18T21:18:39.541Z,20.20
2019-05-18T21:21:08.906Z,20.20
2019-05-18T21:23:38.239Z,20.20
2019-05-18T21:26:07.303Z,20.10
2019-05-18T21:28:36.623Z,20.10
2019-05-18T21:31:05.684Z,20.10
2019-05-18T21:33:34.789Z,20.10
2019-05-18T21:36:04.119Z,20.00
2019-05-18T21:38:33.211Z,19.90
2019-05-18T21:41:02.330Z,19.80
2019-05-18T21:43:31.479Z,19.80
2019-05-18T21:46:00.618Z,19.80
2019-05-18T21:48:29.730Z,19.70
2019-05-18T21:50:58.803Z,19.70
2019-05-18T21:53:28.148Z,19.70
2019-05-18T21:55:57.511Z,19.70
2019-05-18T21:58:26.624Z,19.60
2019-05-18T22:00:55.658Z,19.60
2019-05-18T22:03:25.054Z,19.60
2019-05-18T22:05:54.227Z,19.50
2019-05-18T22:08:23.332Z,19.50
2019-05-18T22:10:52.979Z,19.50
2019-05-18T22:13:22.112Z,19.40
2019-05-18T22:15:51.626Z,19.40
2019-05-18T22:18:24.713Z,19.30
2019-05-18T22:20:51.521Z,19.30
2019-05-18T22:23:21.151Z,19.30
2019-05-18T22:25:50.224Z,19.20
2019-05-18T22:28:19.390Z,19.20
2019-05-18T22:30:48.474Z,19.20
2019-05-18T22:33:17.588Z,19.00
2019-05-18T22:35:46.666Z,19.10
2019-05-18T22:38:15.759Z,19.00
2019-05-18T22:40:45.249Z,19.00
2019-05-18T22:43:14.459Z,19.00
2019-05-18T22:45:43.546Z,19.00
2019-05-18T22:48:12.686Z,18.90
2019-05-18T22:50:41.763Z,18.90
2019-05-18T22:53:10.850Z,18.90
2019-05-18T22:55:39.954Z,18.90
2019-05-18T22:58:09.053Z,18.90
2019-05-18T23:00:38.144Z,18.90
2019-05-18T23:03:07.252Z,18.90
2019-05-18T23:05:36.345Z,18.80
2019-05-18T23:08:08.888Z,18.80
2019-05-18T23:10:38.094Z,18.70
2019-05-18T23:13:07.192Z,18.70
2019-05-18T23:15:36.334Z,18.60
2019-05-18T23:18:05.426Z,18.60
2019-05-18T23:20:34.532Z,18.60
2019-05-18T23:23:03.632Z,18.50
2019-05-18T23:25:32.771Z,18.50
2019-05-18T23:28:01.980Z,18.50
2019-05-18T23:30:31.083Z,18.50
2019-05-18T23:33:00.422Z,18.50
2019-05-18T23:35:29.808Z,18.40
2019-05-18T23:37:59.547Z,18.30
2019-05-18T23:40:28.988Z,18.40
2019-05-18T23:42:58.447Z,18.40
2019-05-18T23:45:28.054Z,18.20
2019-05-18T23:47:59.471Z,18.20
2019-05-18T23:50:27.897Z,18.20
2019-05-18T23:52:56.978Z,18.20
2019-05-18T23:55:26.089Z,18.20
2019-05-18T23:57:55.196Z,18.20
